Time;durP1;ratioP1;P1;durP2;ratioP2;P2;SDS_P1;SDS_P2;PMS_P1;PMS_P2;Temp;Humidity;BMP_temperature;BMP_pressure;BME280_temperature;BME280_humidity;BME280_pressure;Samples;Min_cycle;Max_cycle;Signal;HPM_P1;HPM_P2
2022/09/01 00:01:05;;;;;;;5.00;1.67;;;14.40;99.90;;;;;;5025266;28;20102;-63
2022/09/01 00:03:31;;;;;;;4.00;1.42;;;14.40;99.90;;;;;;5038477;28;20441;-63
2022/09/01 00:05:56;;;;;;;2.97;0.93;;;14.30;99.90;;;;;;5034256;28;20045;-63
2022/09/01 00:08:23;;;;;;;2.97;1.40;;;14.40;99.90;;;;;;5020850;28;20129;-63
2022/09/01 00:10:49;;;;;;;3.17;1.65;;;14.20;99.90;;;;;;5016354;28;20041;-63
2022/09/01 00:13:15;;;;;;;3.85;1.50;;;14.30;99.90;;;;;;5033948;28;20037;-63
2022/09/01 00:15:42;;;;;;;2.83;1.23;;;14.40;99.90;;;;;;5033607;28;20045;-63
2022/09/01 00:18:07;;;;;;;4.40;1.45;;;14.40;99.90;;;;;;5043382;28;20086;-63
2022/09/01 00:20:33;;;;;;;1.95;1.20;;;14.50;99.90;;;;;;5039557;28;20443;-63
2022/09/01 00:22:59;;;;;;;3.92;1.50;;;14.30;99.90;;;;;;5028268;28;20037;-63
2022/09/01 00:25:26;;;;;;;1.95;1.30;;;14.60;99.90;;;;;;5047336;28;20052;-63
2022/09/01 00:27:52;;;;;;;5.15;2.55;;;14.30;99.90;;;;;;5047609;28;20381;-63
2022/09/01 00:30:18;;;;;;;5.38;1.17;;;14.40;99.90;;;;;;5033628;28;20063;-63
2022/09/01 00:32:45;;;;;;;3.80;1.60;;;14.20;99.90;;;;;;5033444;28;20076;-63
2022/09/01 00:35:13;;;;;;;5.63;1.38;;;14.20;99.90;;;;;;5035519;28;20048;-63
2022/09/01 00:37:39;;;;;;;2.95;1.35;;;14.40;99.90;;;;;;5039275;28;20404;-63
2022/09/01 00:40:06;;;;;;;1.80;1.30;;;14.30;99.90;;;;;;5027113;28;20036;-63
2022/09/01 00:42:31;;;;;;;4.88;1.83;;;14.30;99.90;;;;;;5015516;28;20116;-63
2022/09/01 00:44:57;;;;;;;3.95;1.55;;;14.20;99.90;;;;;;5036078;28;20113;-63
2022/09/01 00:47:22;;;;;;;4.30;1.50;;;14.20;99.90;;;;;;5053165;28;20482;-63
2022/09/01 00:49:50;;;;;;;2.35;1.40;;;14.20;99.90;;;;;;5038595;28;20132;-63
2022/09/01 00:52:23;;;;;;;3.35;1.33;;;14.20;99.90;;;;;;5015476;28;20120;-63
2022/09/01 00:54:56;;;;;;;3.33;1.50;;;14.20;99.90;;;;;;5046896;28;20055;-63
2022/09/01 00:57:22;;;;;;;2.30;1.40;;;14.20;99.90;;;;;;5020050;28;20510;-63
2022/09/01 00:59:56;;;;;;;3.83;1.55;;;14.10;99.90;;;;;;5046034;28;20040;-63
2022/09/01 01:02:22;;;;;;;3.93;1.10;;;14.30;99.90;;;;;;5032913;28;20455;-63
2022/09/01 01:04:48;;;;;;;6.60;1.00;;;14.30;99.90;;;;;;5045104;28;20043;-63
2022/09/01 01:07:14;;;;;;;3.72;1.45;;;14.20;99.90;;;;;;5035235;28;20034;-63
2022/09/01 01:09:43;;;;;;;2.20;0.88;;;14.10;99.90;;;;;;5033204;28;20048;-63
2022/09/01 01:12:12;;;;;;;3.25;1.50;;;14.20;99.90;;;;;;5018695;28;20049;-63
2022/09/01 01:14:40;;;;;;;3.22;1.15;;;;;;;;;;5015360;28;20060;-63
2022/09/01 01:17:06;;;;;;;4.78;1.67;;;14.00;99.90;;;;;;5015302;28;20071;-63
2022/09/01 01:23:12;;;;;;;2.75;1.00;;;14.20;99.90;;;;;;5042489;28;20033;-63
2022/09/01 01:25:47;;;;;;;2.20;1.20;;;14.10;99.90;;;;;;5045644;28;20407;-63
2022/09/01 01:28:31;;;;;;;4.15;1.23;;;14.00;99.90;;;;;;5032874;28;20045;-63
2022/09/01 01:31:15;;;;;;;2.88;1.55;;;14.00;99.90;;;;;;5039510;28;20438;-63
2022/09/01 01:33:47;;;;;;;4.40;2.17;;;13.90;99.90;;;;;;5039369;28;20049;-63
2022/09/01 01:36:18;;;;;;;2.85;1.40;;;13.80;99.90;;;;;;5043890;28;20044;-63
2022/09/01 01:38:46;;;;;;;1.67;1.00;;;13.90;99.90;;;;;;5038282;28;20049;-63
2022/09/01 01:41:13;;;;;;;3.00;2.00;;;13.80;99.90;;;;;;5039179;28;20076;-63
2022/09/01 01:43:40;;;;;;;1.98;1.30;;;13.70;99.90;;;;;;5039315;28;20568;-63
2022/09/01 01:46:08;;;;;;;5.28;1.40;;;13.70;99.90;;;;;;5029624;28;20045;-63
2022/09/01 01:48:39;;;;;;;3.05;1.08;;;13.80;99.90;;;;;;5043610;28;20118;-63
2022/09/01 01:51:05;;;;;;;2.67;1.27;;;13.60;99.90;;;;;;5059266;28;20143;-63
2022/09/01 01:53:32;;;;;;;2.17;1.40;;;13.70;99.90;;;;;;5042257;28;20033;-63
2022/09/01 01:55:58;;;;;;;3.65;1.30;;;13.60;99.90;;;;;;5021451;28;20048;-63
2022/09/01 01:58:25;;;;;;;2.47;0.95;;;13.70;99.90;;;;;;5041594;28;20045;-63
2022/09/01 02:00:53;;;;;;;5.25;1.58;;;13.40;99.90;;;;;;5012706;28;20038;-63
2022/09/01 02:03:25;;;;;;;1.88;1.33;;;13.40;99.90;;;;;;5042413;28;20399;-63
2022/09/01 02:05:54;;;;;;;2.55;1.40;;;13.40;99.90;;;;;;5026564;28;20053;-63
2022/09/01 02:08:24;;;;;;;2.10;1.55;;;13.40;99.90;;;;;;5037610;28;20034;-63
2022/09/01 02:10:52;;;;;;;1.98;1.30;;;13.70;99.90;;;;;;5021343;28;20506;-63
2022/09/01 02:13:29;;;;;;;2.00;1.55;;;13.60;99.90;;;;;;5021192;28;20037;-63
2022/09/01 02:15:58;;;;;;;2.35;1.48;;;13.40;99.90;;;;;;5039309;28;20052;-62
2022/09/01 02:18:27;;;;;;;2.47;1.30;;;13.50;99.90;;;;;;5038850;28;20045;-63
2022/09/01 02:20:54;;;;;;;2.95;1.50;;;13.40;99.90;;;;;;5021213;28;20060;-63
2022/09/01 02:23:24;;;;;;;5.22;1.48;;;13.60;99.90;;;;;;5021389;28;20045;-63
2022/09/01 02:25:52;;;;;;;2.30;1.42;;;13.50;99.90;;;;;;5004731;28;20411;-63
2022/09/01 02:28:18;;;;;;;1.75;1.27;;;13.40;99.90;;;;;;5021080;28;20045;-63
2022/09/01 02:30:48;;;;;;;2.08;1.25;;;13.50;99.90;;;;;;5038759;28;20057;-63
2022/09/01 02:33:17;;;;;;;1.75;1.48;;;13.50;99.90;;;;;;5018681;28;20052;-63
2022/09/01 02:35:44;;;;;;;5.32;1.30;;;13.30;99.90;;;;;;5049032;28;20029;-63
2022/09/01 02:38:12;;;;;;;3.75;1.50;;;13.30;99.90;;;;;;5018221;28;20053;-63
2022/09/01 02:40:39;;;;;;;2.75;1.30;;;13.40;99.90;;;;;;5030505;28;20077;-63
2022/09/01 02:43:05;;;;;;;1.77;1.02;;;13.30;99.90;;;;;;5027165;28;20041;-63
2022/09/01 02:45:31;;;;;;;2.30;1.38;;;13.20;99.90;;;;;;5035270;28;20551;-63
2022/09/01 02:47:57;;;;;;;2.35;1.20;;;13.40;99.90;;;;;;5027483;28;20037;-63
2022/09/01 02:50:25;;;;;;;4.35;1.30;;;13.20;99.90;;;;;;5033387;28;20060;-63
2022/09/01 02:52:51;;;;;;;2.03;1.10;;;13.30;99.90;;;;;;5029724;28;20048;-63
2022/09/01 02:55:20;;;;;;;2.95;1.30;;;13.40;99.90;;;;;;5049537;28;20392;-63
2022/09/01 02:57:51;;;;;;;3.03;1.55;;;13.40;99.90;;;;;;5021922;28;20419;-63
2022/09/01 03:00:27;;;;;;;3.20;1.10;;;13.20;99.90;;;;;;5048395;28;20552;-63
2022/09/01 03:02:56;;;;;;;3.53;1.65;;;13.10;99.90;;;;;;5004348;28;20104;-63
2022/09/01 03:05:25;;;;;;;3.60;1.52;;;13.40;99.90;;;;;;5035198;28;20500;-63
2022/09/01 03:08:09;;;;;;;3.42;1.30;;;13.40;99.90;;;;;;5038822;28;20069;-63
2022/09/01 03:10:38;;;;;;;2.55;1.25;;;13.30;99.90;;;;;;5022390;28;20046;-63
2022/09/01 03:13:17;;;;;;;2.28;1.20;;;13.30;99.90;;;;;;5034317;28;20428;-63
2022/09/01 03:15:44;;;;;;;2.55;1.20;;;13.30;99.90;;;;;;5035078;28;20037;-63
2022/09/01 03:18:12;;;;;;;2.35;1.15;;;13.30;99.90;;;;;;5048812;28;20048;-63
2022/09/01 03:20:42;;;;;;;2.67;1.38;;;13.30;99.90;;;;;;5016972;28;20047;-63
2022/09/01 03:23:09;;;;;;;2.65;1.38;;;13.30;99.90;;;;;;5017076;28;20112;-63
2022/09/01 03:25:36;;;;;;;1.40;1.13;;;13.20;99.90;;;;;;5017149;28;20041;-63
2022/09/01 03:28:03;;;;;;;1.88;1.20;;;13.30;99.90;;;;;;5017155;28;20400;-63
2022/09/01 03:30:33;;;;;;;1.65;1.35;;;13.30;99.90;;;;;;5017026;28;20057;-63
2022/09/01 03:32:59;;;;;;;2.33;1.63;;;13.20;99.90;;;;;;5048877;28;20048;-63
2022/09/01 03:35:27;;;;;;;4.35;1.17;;;13.20;99.90;;;;;;5034682;28;20091;-63
2022/09/01 03:37:57;;;;;;;3.58;1.33;;;13.20;99.90;;;;;;5016843;28;20041;-63
2022/09/01 03:40:26;;;;;;;2.30;1.60;;;13.10;99.90;;;;;;5021251;28;20083;-63
2022/09/01 03:42:54;;;;;;;2.75;1.55;;;13.20;99.90;;;;;;5034527;28;20045;-63
2022/09/01 03:45:24;;;;;;;4.10;1.30;;;12.90;99.90;;;;;;5034278;28;20033;-63
2022/09/01 03:47:51;;;;;;;2.35;1.27;;;12.90;99.90;;;;;;5034288;28;20052;-63
2022/09/01 03:50:20;;;;;;;3.28;1.60;;;13.00;99.90;;;;;;5020512;28;20036;-63
2022/09/01 03:52:52;;;;;;;2.78;1.52;;;12.90;99.90;;;;;;5043994;28;20038;-63
2022/09/01 03:55:22;;;;;;;2.70;1.20;;;12.90;99.90;;;;;;5034422;28;20116;-63
2022/09/01 03:57:52;;;;;;;2.30;1.52;;;13.00;99.90;;;;;;5016708;28;20423;-63
2022/09/01 04:00:21;;;;;;;2.92;1.35;;;12.80;99.90;;;;;;5030519;28;20119;-63
2022/09/01 04:02:50;;;;;;;2.00;1.55;;;13.00;99.90;;;;;;5033872;28;20127;-63
2022/09/01 04:05:21;;;;;;;7.50;2.00;;;12.70;99.90;;;;;;5048226;28;20103;-63
2022/09/01 04:07:49;;;;;;;2.20;1.48;;;12.90;99.90;;;;;;5034093;28;20057;-63
2022/09/01 04:10:16;;;;;;;2.65;1.50;;;12.70;99.90;;;;;;5016261;28;20047;-63
2022/09/01 04:12:43;;;;;;;9.75;1.80;;;12.60;99.90;;;;;;5018537;28;20553;-63
2022/09/01 04:15:09;;;;;;;4.75;1.48;;;12.70;99.90;;;;;;5045566;28;20043;-63
2022/09/01 04:20:20;;;;;;;1.70;1.27;;;12.80;99.90;;;;;;5025160;28;20042;-63
2022/09/01 04:22:46;;;;;;;5.35;1.50;;;12.60;99.90;;;;;;5012494;28;20049;-63
2022/09/01 04:25:13;;;;;;;3.53;1.88;;;12.70;99.90;;;;;;5028457;28;20048;-63
2022/09/01 04:27:39;;;;;;;1.95;1.30;;;12.50;99.90;;;;;;5002743;28;20137;-63
2022/09/01 04:30:09;;;;;;;5.45;2.20;;;12.50;99.90;;;;;;5033132;28;20046;-63
2022/09/01 04:32:36;;;;;;;6.95;1.33;;;12.70;99.90;;;;;;5033552;28;20518;-63
2022/09/01 04:35:04;;;;;;;3.90;1.33;;;12.40;99.90;;;;;;5023895;28;20040;-63
2022/09/01 04:37:29;;;;;;;3.50;1.55;;;12.60;99.90;;;;;;5042952;28;20514;-63
2022/09/01 04:39:56;;;;;;;5.85;1.50;;;12.60;99.90;;;;;;5015619;28;20037;-63
2022/09/01 04:42:24;;;;;;;2.17;1.65;;;12.50;99.90;;;;;;5033646;28;20380;-63
2022/09/01 04:44:52;;;;;;;5.32;1.50;;;12.40;99.90;;;;;;5032471;28;20524;-63
2022/09/01 04:47:18;;;;;;;5.82;2.72;;;12.40;99.90;;;;;;5003095;28;20045;-63
2022/09/01 04:49:46;;;;;;;4.20;1.58;;;12.40;99.90;;;;;;5033602;28;20049;-63
2022/09/01 04:52:13;;;;;;;4.05;1.40;;;12.60;99.90;;;;;;5033254;28;20033;-63
2022/09/01 04:54:38;;;;;;;2.65;1.60;;;12.60;99.90;;;;;;5015721;28;20045;-63
2022/09/01 04:57:07;;;;;;;3.85;1.38;;;12.50;99.90;;;;;;5032502;28;20472;-63
2022/09/01 04:59:34;;;;;;;4.28;2.10;;;12.70;99.90;;;;;;5033399;28;20033;-63
2022/09/01 05:02:00;;;;;;;3.15;1.50;;;12.60;99.90;;;;;;5032667;28;20498;-63
2022/09/01 05:04:32;;;;;;;2.55;1.38;;;12.60;99.90;;;;;;5015479;28;20046;-63
2022/09/01 05:07:01;;;;;;;5.82;1.60;;;12.60;99.90;;;;;;5036457;28;20509;-63
2022/09/01 05:09:29;;;;;;;2.40;1.52;;;12.70;99.90;;;;;;5020989;28;20051;-62
2022/09/01 05:11:56;;;;;;;2.58;1.52;;;12.80;99.90;;;;;;5053085;28;20041;-63
2022/09/01 05:14:23;;;;;;;2.97;1.45;;;12.80;99.90;;;;;;5051014;28;20048;-62
2022/09/01 05:16:49;;;;;;;2.58;1.63;;;12.70;99.90;;;;;;5023233;28;20487;-62
2022/09/01 05:19:19;;;;;;;3.05;1.77;;;12.70;99.90;;;;;;5020612;28;20045;-63
2022/09/01 05:21:46;;;;;;;2.13;1.90;;;12.90;99.90;;;;;;5015464;28;20045;-62
2022/09/01 05:24:20;;;;;;;2.50;1.55;;;12.70;99.90;;;;;;5033156;28;20038;-63
2022/09/01 05:26:46;;;;;;;4.57;1.63;;;12.90;99.90;;;;;;5019221;28;20049;-63
2022/09/01 05:29:12;;;;;;;2.60;1.70;;;12.90;99.90;;;;;;5032791;28;20049;-63
2022/09/01 05:31:43;;;;;;;2.08;1.27;;;13.00;99.90;;;;;;5036988;28;20025;-63
2022/09/01 05:34:09;;;;;;;3.05;1.77;;;12.80;99.90;;;;;;5042136;28;20046;-63
2022/09/01 05:36:37;;;;;;;2.38;1.77;;;12.90;99.90;;;;;;5015108;28;20484;-63
2022/09/01 05:39:05;;;;;;;3.55;1.60;;;13.00;99.90;;;;;;5015098;28;20057;-63
2022/09/01 05:41:33;;;;;;;2.22;1.63;;;13.00;99.90;;;;;;5031367;28;20391;-63
2022/09/01 05:44:01;;;;;;;2.00;1.65;;;13.00;99.90;;;;;;5020740;28;20037;-63
2022/09/01 05:46:27;;;;;;;2.83;1.65;;;13.10;99.90;;;;;;5046556;28;20087;-63
2022/09/01 05:48:53;;;;;;;3.17;1.63;;;13.00;99.90;;;;;;5038858;28;20028;-62
2022/09/01 05:51:25;;;;;;;5.63;2.35;;;13.20;99.90;;;;;;5022540;28;20049;-63
2022/09/01 05:53:58;;;;;;;3.55;1.50;;;13.30;99.90;;;;;;5051900;28;20041;-63
2022/09/01 05:56:25;;;;;;;2.58;1.55;;;13.10;99.90;;;;;;5040437;28;20045;-63
2022/09/01 05:58:52;;;;;;;5.10;1.60;;;13.20;99.90;;;;;;5028560;28;20033;-63
2022/09/01 06:01:21;;;;;;;4.68;1.50;;;13.30;99.90;;;;;;5043078;28;20040;-63
2022/09/01 06:03:49;;;;;;;2.70;1.67;;;13.30;99.90;;;;;;5020634;28;20057;-63
2022/09/01 06:06:15;;;;;;;5.05;1.50;;;13.50;99.90;;;;;;5043193;28;20039;-62
2022/09/01 06:08:41;;;;;;;3.20;2.20;;;;;;;;;;5017277;28;20045;-63
2022/09/01 06:11:12;;;;;;;2.38;1.70;;;13.60;99.90;;;;;;5018407;28;20487;-63
2022/09/01 06:13:40;;;;;;;3.97;1.60;;;14.10;99.90;;;;;;5036127;28;20050;-63
2022/09/01 06:16:07;;;;;;;2.45;1.48;;;14.40;99.90;;;;;;5018288;28;20057;-63
2022/09/01 06:18:34;;;;;;;5.85;1.98;;;14.20;99.90;;;;;;5018546;28;20053;-63
2022/09/01 06:21:03;;;;;;;4.55;1.25;;;14.80;99.90;;;;;;5032312;28;20041;-63
2022/09/01 06:23:28;;;;;;;4.07;1.60;;;15.20;99.90;;;;;;5018288;28;20521;-64
2022/09/01 06:25:54;;;;;;;3.28;2.03;;;15.30;99.90;;;;;;5017975;28;20072;-63
2022/09/01 06:28:22;;;;;;;5.10;1.05;;;15.60;99.90;;;;;;5034696;28;20041;-62
2022/09/01 06:30:50;;;;;;;2.25;1.40;;;15.60;99.90;;;;;;5032508;28;20049;-63
2022/09/01 06:33:16;;;;;;;1.98;1.20;;;16.20;99.90;;;;;;5033470;28;20095;-63
2022/09/01 06:35:45;;;;;;;2.78;1.10;;;16.10;99.90;;;;;;5035355;28;20045;-63
2022/09/01 06:38:18;;;;;;;3.05;1.10;;;16.40;99.90;;;;;;5035224;28;20073;-63
2022/09/01 06:40:44;;;;;;;3.50;1.17;;;16.50;99.90;;;;;;5035484;28;20037;-63
2022/09/01 06:43:15;;;;;;;4.85;1.10;;;16.40;99.90;;;;;;5017206;28;20046;-63
2022/09/01 06:45:45;;;;;;;5.47;1.48;;;16.30;99.90;;;;;;5018144;28;20057;-63
2022/09/01 06:48:15;;;;;;;2.00;1.20;;;16.60;99.90;;;;;;5017663;28;20057;-63
2022/09/01 06:50:41;;;;;;;2.78;1.60;;;16.60;99.90;;;;;;5017941;28;20053;-63
2022/09/01 06:53:10;;;;;;;1.98;1.10;;;16.80;99.90;;;;;;5017552;28;20053;-63
2022/09/01 06:55:37;;;;;;;4.15;1.15;;;16.90;99.90;;;;;;5032361;28;20107;-63
2022/09/01 06:58:07;;;;;;;2.80;1.08;;;17.20;99.90;;;;;;5030174;28;20033;-63
2022/09/01 07:00:41;;;;;;;29.70;8.40;;;17.00;99.90;;;;;;5012577;28;20056;-64
2022/09/01 07:03:12;;;;;;;1.50;1.10;;;17.30;99.90;;;;;;5016645;28;20050;-64
2022/09/01 07:05:43;;;;;;;2.50;1.13;;;17.30;99.90;;;;;;5016873;28;20049;-64
2022/09/01 07:08:14;;;;;;;3.72;1.88;;;17.20;99.90;;;;;;5018237;28;20041;-64
2022/09/01 07:10:46;;;;;;;2.42;1.00;;;17.30;99.90;;;;;;5021112;28;20048;-64
2022/09/01 07:13:21;;;;;;;2.38;1.40;;;17.50;99.90;;;;;;5031600;28;20503;-64
2022/09/01 07:15:52;;;;;;;3.35;1.02;;;17.30;99.90;;;;;;5018343;28;20488;-64
2022/09/01 07:18:26;;;;;;;1.23;0.90;;;17.70;99.90;;;;;;5017833;28;20377;-63
2022/09/01 07:20:53;;;;;;;2.38;1.20;;;17.70;99.90;;;;;;5034211;28;20379;-64
2022/09/01 07:23:19;;;;;;;3.45;1.25;;;17.80;99.90;;;;;;5034652;28;20087;-64
2022/09/01 07:25:47;;;;;;;2.67;1.00;;;17.70;99.90;;;;;;5017208;28;20060;-63
2022/09/01 07:28:15;;;;;;;1.40;0.80;;;18.00;99.90;;;;;;5017100;28;20484;-63
2022/09/01 07:30:47;;;;;;;9.60;2.15;;;17.80;99.90;;;;;;5034304;28;20095;-63
2022/09/01 07:33:15;;;;;;;2.45;1.00;;;17.90;99.90;;;;;;5016766;28;20041;-63
2022/09/01 07:35:41;;;;;;;3.88;1.27;;;17.80;99.90;;;;;;5016808;28;20571;-63
2022/09/01 07:38:08;;;;;;;3.97;1.25;;;17.60;99.90;;;;;;5034515;28;20072;-63
2022/09/01 07:40:37;;;;;;;6.82;2.13;;;18.10;99.90;;;;;;5034499;28;20083;-63
2022/09/01 07:43:16;;;;;;;3.33;0.80;;;17.80;99.90;;;;;;5034165;28;20491;-63
2022/09/01 07:45:48;;;;;;;1.90;1.08;;;17.80;99.90;;;;;;5034370;28;20132;-63
2022/09/01 07:48:19;;;;;;;4.72;1.08;;;18.00;99.90;;;;;;5016657;28;20538;-63
2022/09/01 07:50:46;;;;;;;4.75;1.30;;;18.20;99.90;;;;;;5034199;28;20427;-63
2022/09/01 07:53:33;;;;;;;5.32;1.48;;;18.30;99.90;;;;;;5016355;28;20049;-63
2022/09/01 07:56:10;;;;;;;2.88;1.10;;;18.20;99.90;;;;;;5016053;28;20084;-64
2022/09/01 07:58:37;;;;;;;2.60;1.00;;;18.40;99.90;;;;;;5030279;28;20557;-63
2022/09/01 08:01:12;;;;;;;4.20;1.00;;;18.50;99.90;;;;;;5016561;28;20377;-63
2022/09/01 08:03:38;;;;;;;;;;;18.70;99.90;;;;;;5034104;28;20049;-63
2022/09/01 08:06:07;;;;;;;8.07;1.33;;;18.60;99.90;;;;;;5033789;28;19921;-63
2022/09/01 08:08:34;;;;;;;2.40;0.70;;;18.50;99.90;;;;;;5016169;28;20041;-63
2022/09/01 08:11:00;;;;;;;3.88;1.10;;;18.40;99.90;;;;;;5034037;28;20056;-63
2022/09/01 08:13:26;;;;;;;2.70;0.82;;;18.70;99.90;;;;;;5016279;28;20041;-64
2022/09/01 08:15:51;;;;;;;2.97;0.90;;;18.80;99.90;;;;;;5033922;28;20038;-64
2022/09/01 08:18:17;;;;;;;2.55;0.98;;;19.00;99.90;;;;;;5033844;28;20033;-63
2022/09/01 08:20:44;;;;;;;1.50;0.80;;;18.90;99.90;;;;;;5016129;28;20119;-63
2022/09/01 08:23:12;;;;;;;2.67;0.65;;;19.10;99.90;;;;;;5015984;28;20487;-64
2022/09/01 08:25:38;;;;;;;3.60;0.90;;;18.80;99.90;;;;;;5016291;28;20052;-63
2022/09/01 08:28:05;;;;;;;2.80;0.80;;;18.90;99.90;;;;;;5034022;28;20610;-64
2022/09/01 08:30:31;;;;;;;2.60;1.00;;;19.10;99.90;;;;;;5033189;28;20033;-64
2022/09/01 08:32:59;;;;;;;1.02;0.80;;;19.20;99.90;;;;;;5032994;28;20083;-64
2022/09/01 08:35:28;;;;;;;1.63;0.60;;;19.30;99.90;;;;;;5015714;28;20045;-63
2022/09/01 08:37:54;;;;;;;1.05;0.52;;;19.50;99.90;;;;;;5015746;28;20056;-64
2022/09/01 08:40:22;;;;;;;4.00;1.42;;;19.60;99.90;;;;;;5033292;28;20076;-64
2022/09/01 08:43:13;;;;;;;2.50;0.60;;;19.60;99.90;;;;;;5015604;28;20037;-64
2022/09/01 08:45:49;;;;;;;1.10;0.65;;;19.70;99.90;;;;;;5003614;28;20041;-64
2022/09/01 08:48:17;;;;;;;1.02;0.60;;;19.80;99.90;;;;;;5015559;28;20045;-64
2022/09/01 08:50:50;;;;;;;1.70;0.80;;;20.00;99.90;;;;;;5015522;28;20045;-64
2022/09/01 08:53:33;;;;;;;2.03;0.60;;;20.10;99.90;;;;;;5024007;28;20045;-63
2022/09/01 08:55:59;;;;;;;2.67;0.90;;;20.20;99.90;;;;;;5015327;28;20495;-64
2022/09/01 08:58:29;;;;;;;3.35;0.40;;;20.10;99.90;;;;;;5033122;28;20117;-63
2022/09/01 09:01:14;;;;;;;2.90;0.77;;;20.20;99.90;;;;;;5033081;28;20120;-64
2022/09/01 09:03:48;;;;;;;2.55;0.77;;;20.40;99.90;;;;;;5015061;28;20064;-64
2022/09/01 09:06:31;;;;;;;12.68;2.50;;;20.50;99.90;;;;;;5015185;28;20053;-64
2022/09/01 09:08:59;;;;;;;4.13;0.52;;;20.40;99.90;;;;;;5009011;28;20088;-64
2022/09/01 09:11:28;;;;;;;2.25;0.70;;;20.60;99.90;;;;;;5015304;28;20041;-64
2022/09/01 09:14:02;;;;;;;1.67;0.60;;;20.50;99.90;;;;;;5015313;28;20496;-64
2022/09/01 09:16:38;;;;;;;1.10;0.60;;;20.70;99.90;;;;;;5014712;28;20037;-64
2022/09/01 09:19:09;;;;;;;3.38;0.63;;;20.90;99.90;;;;;;5031877;28;20495;-64
2022/09/01 09:21:42;;;;;;;1.83;0.57;;;20.90;99.90;;;;;;5030715;28;20072;-64
2022/09/01 09:24:27;;;;;;;2.55;0.73;;;21.00;99.90;;;;;;5032460;28;20029;-64
2022/09/01 09:26:55;;;;;;;4.05;0.77;;;21.20;99.90;;;;;;5008417;28;20056;-66
2022/09/01 09:29:21;;;;;;;1.92;0.40;;;21.10;99.90;;;;;;5032876;28;20035;-63
2022/09/01 09:31:52;;;;;;;2.40;0.68;;;21.40;99.90;;;;;;5017799;28;20046;-64
2022/09/01 09:34:40;;;;;;;1.77;0.40;;;21.70;99.90;;;;;;5013392;28;20395;-64
2022/09/01 09:37:16;;;;;;;1.38;0.45;;;23.70;99.90;;;;;;5030679;28;20041;-64
2022/09/01 09:39:42;;;;;;;1.02;0.40;;;22.00;99.90;;;;;;5010078;28;20076;-65
2022/09/01 09:42:11;;;;;;;0.68;0.35;;;22.30;99.90;;;;;;4999923;28;20038;-64
2022/09/01 09:44:47;;;;;;;3.17;0.60;;;22.40;99.90;;;;;;5034346;28;20038;-65
2022/09/01 09:47:42;;;;;;;1.73;0.40;;;22.50;99.90;;;;;;5035102;28;20060;-65
2022/09/01 09:50:13;;;;;;;4.75;0.50;;;22.30;99.90;;;;;;5035229;28;20083;-63
2022/09/01 09:52:39;;;;;;;1.50;0.73;;;22.40;99.90;;;;;;5035226;28;20044;-63
2022/09/01 09:55:26;;;;;;;3.72;0.98;;;22.70;99.90;;;;;;5034359;28;20029;-64
2022/09/01 09:57:59;;;;;;;1.02;0.30;;;22.50;99.90;;;;;;5035037;28;20096;-63
2022/09/01 10:00:28;;;;;;;1.85;0.40;;;22.70;99.90;;;;;;5018405;28;20041;-64
2022/09/01 10:02:58;;;;;;;1.45;0.50;;;22.80;99.90;;;;;;5036110;28;20049;-63
2022/09/01 10:05:43;;;;;;;2.22;0.45;;;22.90;99.90;;;;;;5001961;28;20495;-63
2022/09/01 10:08:14;;;;;;;2.83;0.40;;;22.90;99.90;;;;;;5031934;28;20112;-62
2022/09/01 10:10:45;;;;;;;1.80;0.30;;;22.80;99.90;;;;;;5018674;28;20132;-63
2022/09/01 10:13:13;;;;;;;2.25;0.40;;;23.00;99.90;;;;;;5022623;28;20069;-63
2022/09/01 10:15:42;;;;;;;0.63;0.30;;;23.30;99.90;;;;;;5018495;28;20168;-63
2022/09/01 10:18:17;;;;;;;1.20;0.30;;;23.00;99.90;;;;;;5035895;28;20037;-63
2022/09/01 10:21:07;;;;;;;3.05;0.52;;;22.90;99.90;;;;;;5035946;28;20037;-63
2022/09/01 10:23:35;;;;;;;3.80;0.30;;;22.90;99.90;;;;;;5005393;28;20042;-64
2022/09/01 10:26:36;;;;;;;1.55;0.30;;;22.50;99.90;;;;;;5035818;28;20041;-63
2022/09/01 10:29:10;;;;;;;2.53;0.60;;;22.70;99.90;;;;;;4959564;28;20049;-63
2022/09/01 10:31:36;;;;;;;1.90;0.30;;;22.70;99.90;;;;;;5035700;28;20029;-63
2022/09/01 10:34:04;;;;;;;1.23;0.30;;;22.90;99.90;;;;;;5035659;28;20376;-63
2022/09/01 10:36:31;;;;;;;3.80;0.40;;;22.90;99.90;;;;;;5035575;28;20041;-63
2022/09/01 10:38:56;;;;;;;3.13;0.30;;;22.70;99.90;;;;;;5035565;28;20046;-63
2022/09/01 10:41:53;;;;;;;0.73;0.30;;;22.50;99.90;;;;;;5035399;28;20029;-63
2022/09/01 10:44:32;;;;;;;1.90;0.30;;;22.70;99.90;;;;;;5013950;28;20087;-62
2022/09/01 10:47:06;;;;;;;1.35;0.40;;;22.70;99.90;;;;;;5033599;28;20128;-62
2022/09/01 10:49:32;;;;;;;1.08;0.30;;;22.60;99.90;;;;;;5035198;28;20052;-62
2022/09/01 10:51:58;;;;;;;2.53;0.30;;;22.40;99.90;;;;;;5018238;28;20049;-62
2022/09/01 10:54:39;;;;;;;3.58;0.47;;;22.40;99.90;;;;;;5015615;28;20045;-66
2022/09/01 10:57:39;;;;;;;2.63;0.30;;;22.30;99.90;;;;;;5006600;28;20033;-64
2022/09/01 11:00:23;;;;;;;0.80;0.30;;;22.50;99.90;;;;;;4997106;28;20045;-65
2022/09/01 11:03:10;;;;;;;0.75;0.30;;;22.30;99.90;;;;;;5034738;28;20049;-65
2022/09/01 11:05:54;;;;;;;1.10;0.35;;;22.40;99.90;;;;;;5000373;28;20092;-63
2022/09/01 11:08:26;;;;;;;2.53;0.35;;;22.30;99.90;;;;;;4997375;28;20100;-64
2022/09/01 11:11:03;;;;;;;1.77;0.50;;;22.10;99.90;;;;;;5033405;28;20475;-64
2022/09/01 11:13:49;;;;;;;1.77;0.35;;;22.10;99.90;;;;;;5035198;28;20037;-63
2022/09/01 11:16:37;;;;;;;0.60;0.30;;;22.10;99.90;;;;;;5048715;28;20037;-63
2022/09/01 11:19:26;;;;;;;0.82;0.30;;;22.00;99.90;;;;;;5008637;28;20057;-63
2022/09/01 11:22:12;;;;;;;0.77;0.28;;;21.90;99.90;;;;;;5030617;28;20113;-63
2022/09/01 11:24:38;;;;;;;1.60;0.20;;;21.90;99.90;;;;;;4967669;28;20099;-63
2022/09/01 11:27:05;;;;;;;0.47;0.20;;;22.00;99.90;;;;;;5014181;28;20446;-64
2022/09/01 11:29:55;;;;;;;1.15;0.30;;;21.70;99.90;;;;;;5036200;28;20578;-64
2022/09/01 11:32:25;;;;;;;2.60;0.30;;;22.00;99.90;;;;;;5028097;28;20041;-65
2022/09/01 11:34:53;;;;;;;2.10;0.40;;;21.50;99.90;;;;;;5016095;28;20045;-64
2022/09/01 11:37:23;;;;;;;1.33;0.70;;;21.60;99.90;;;;;;5015913;28;20036;-64
2022/09/01 11:39:53;;;;;;;1.88;0.20;;;23.20;99.90;;;;;;5005258;28;20381;-64
2022/09/01 11:42:26;;;;;;;0.75;0.40;;;22.40;99.90;;;;;;5016236;28;20041;-64
2022/09/01 11:45:00;;;;;;;0.50;0.20;;;21.60;99.90;;;;;;5015807;28;20048;-64
2022/09/01 11:47:31;;;;;;;2.30;0.30;;;21.70;99.90;;;;;;5033601;28;20567;-64
2022/09/01 11:49:56;;;;;;;1.33;0.57;;;21.70;99.90;;;;;;5015826;28;20095;-64
2022/09/01 11:52:25;;;;;;;1.30;0.30;;;21.80;99.90;;;;;;5016146;28;20427;-64
2022/09/01 11:54:51;;;;;;;2.15;0.40;;;21.80;99.90;;;;;;5033715;28;20046;-64
2022/09/01 11:57:35;;;;;;;1.42;0.30;;;21.60;99.90;;;;;;5032957;28;20030;-64
2022/09/01 12:00:05;;;;;;;41.67;3.38;;;21.60;99.90;;;;;;5033366;28;20395;-64
2022/09/01 12:02:35;;;;;;;0.85;0.35;;;21.90;99.90;;;;;;5013575;28;20053;-64
2022/09/01 12:05:03;;;;;;;2.38;0.32;;;21.60;99.90;;;;;;5015212;28;20057;-64
2022/09/01 12:07:46;;;;;;;1.60;0.20;;;21.50;99.90;;;;;;5032608;28;20076;-64
2022/09/01 12:10:25;;;;;;;11.00;0.50;;;21.70;99.90;;;;;;5030454;28;20029;-64
2022/09/01 12:13:06;;;;;;;3.08;0.40;;;21.50;99.90;;;;;;4998707;28;20091;-64
2022/09/01 12:15:35;;;;;;;3.00;0.40;;;21.70;99.90;;;;;;5015329;28;20450;-65
2022/09/01 12:18:17;;;;;;;1.00;0.30;;;21.50;99.90;;;;;;5014685;28;20518;-65
2022/09/01 12:20:43;;;;;;;1.20;0.30;;;21.50;99.90;;;;;;5032638;28;20037;-66
2022/09/01 12:23:41;;;;;;;2.78;0.38;;;21.70;99.90;;;;;;5032535;28;20029;-65
2022/09/01 12:26:17;;;;;;;2.30;0.40;;;21.70;99.90;;;;;;5032821;28;20068;-65
2022/09/01 12:28:44;;;;;;;0.80;0.40;;;21.70;99.90;;;;;;5012473;28;20120;-65
2022/09/01 12:31:20;;;;;;;1.23;0.40;;;22.80;99.90;;;;;;5015760;28;20045;-65
2022/09/01 12:33:47;;;;;;;1.35;0.38;;;21.60;99.90;;;;;;5013321;28;20419;-65
2022/09/01 12:36:32;;;;;;;2.47;0.38;;;21.60;99.90;;;;;;5030081;28;20048;-66
2022/09/01 12:39:16;;;;;;;1.48;0.20;;;21.80;99.90;;;;;;5009658;28;20084;-65
2022/09/01 12:41:59;;;;;;;1.20;0.30;;;22.00;99.90;;;;;;5029679;28;20057;-64
2022/09/01 12:44:42;;;;;;;2.30;0.30;;;22.10;99.90;;;;;;5033474;28;20395;-64
2022/09/01 12:47:14;;;;;;;3.40;0.30;;;22.20;99.90;;;;;;5015908;28;20033;-65
2022/09/01 12:49:43;;;;;;;1.98;0.30;;;22.10;99.90;;;;;;5014462;28;20076;-64
2022/09/01 12:52:20;;;;;;;3.08;0.30;;;22.10;99.90;;;;;;5014181;28;20041;-64
2022/09/01 12:54:49;;;;;;;0.88;0.30;;;22.20;99.90;;;;;;5012516;28;20042;-64
2022/09/01 12:57:34;;;;;;;2.47;0.20;;;22.50;99.90;;;;;;5032327;28;20122;-65
2022/09/01 13:00:28;;;;;;;1.48;0.30;;;22.80;99.90;;;;;;5021345;28;20046;-64
2022/09/01 13:02:54;;;;;;;1.13;0.20;;;22.90;99.90;;;;;;5007375;28;20082;-64
2022/09/01 13:05:32;;;;;;;1.63;0.30;;;22.90;99.90;;;;;;5013042;28;20139;-65
2022/09/01 13:08:01;;;;;;;1.02;0.28;;;22.80;99.90;;;;;;5014388;28;20376;-65
2022/09/01 13:10:31;;;;;;;1.92;0.28;;;22.70;99.90;;;;;;5032181;28;20515;-65
2022/09/01 13:12:56;;;;;;;1.85;0.30;;;23.00;99.90;;;;;;5013793;28;20041;-65